createdAt,value
2023-05-14T00:01:08.155Z,8.52
2023-05-14T00:03:36.909Z,8.54
2023-05-14T00:06:04.149Z,8.40
2023-05-14T00:08:31.212Z,8.37
2023-05-14T00:10:58.945Z,8.41
2023-05-14T00:13:26.168Z,8.49
2023-05-14T00:15:53.229Z,8.40
2023-05-14T00:18:20.334Z,8.42
2023-05-14T00:20:47.369Z,8.43
2023-05-14T00:23:14.509Z,8.40
2023-05-14T00:25:41.622Z,8.40
2023-05-14T00:28:08.675Z,8.40
2023-05-14T00:30:35.732Z,8.41
2023-05-14T00:33:02.882Z,8.36
2023-05-14T00:35:30.161Z,8.38
2023-05-14T00:37:57.303Z,8.48
2023-05-14T00:40:26.003Z,8.45
2023-05-14T00:42:53.996Z,8.44
2023-05-14T00:45:21.156Z,8.46
2023-05-14T00:47:49.321Z,8.49
2023-05-14T00:50:17.914Z,8.47
2023-05-14T00:52:44.989Z,8.41
2023-05-14T00:55:16.334Z,8.47
2023-05-14T00:57:43.602Z,8.46
2023-05-14T01:00:11.064Z,8.49
2023-05-14T01:02:38.508Z,8.44
2023-05-14T01:05:06.491Z,8.51
2023-05-14T01:07:36.835Z,8.53
2023-05-14T01:10:13.758Z,8.48
2023-05-14T01:12:43.936Z,8.51
2023-05-14T01:15:12.578Z,8.53
2023-05-14T01:17:42.896Z,8.49
2023-05-14T01:20:10.595Z,8.47
2023-05-14T01:22:37.790Z,8.46
2023-05-14T01:25:06.008Z,8.51
2023-05-14T01:27:45.534Z,8.54
2023-05-14T01:30:16.851Z,8.55
2023-05-14T01:32:47.010Z,8.51
2023-05-14T01:35:14.364Z,8.51
2023-05-14T01:37:41.875Z,8.47
2023-05-14T01:40:11.310Z,8.43
2023-05-14T01:42:38.577Z,8.37
2023-05-14T01:45:05.849Z,8.36
2023-05-14T01:47:32.896Z,8.34
2023-05-14T01:50:00.036Z,8.33
2023-05-14T01:52:27.187Z,8.29
2023-05-14T01:54:54.338Z,8.20
2023-05-14T01:57:21.482Z,8.31
2023-05-14T01:59:48.520Z,8.33
2023-05-14T02:02:15.560Z,8.26
2023-05-14T02:04:42.637Z,8.23
2023-05-14T02:07:09.686Z,8.20
2023-05-14T02:09:36.752Z,8.12
2023-05-14T02:12:03.865Z,8.10
2023-05-14T02:14:31.046Z,8.12
2023-05-14T02:16:58.194Z,8.05
2023-05-14T02:19:25.345Z,8.12
2023-05-14T02:21:52.474Z,8.06
2023-05-14T02:24:19.502Z,7.92
2023-05-14T02:26:46.668Z,7.98
2023-05-14T02:29:13.940Z,7.99
2023-05-14T02:31:41.069Z,8.05
2023-05-14T02:34:08.126Z,8.04
2023-05-14T02:36:35.269Z,8.03
2023-05-14T02:39:02.456Z,8.02
2023-05-14T02:41:29.540Z,8.08
2023-05-14T02:43:56.621Z,8.06
2023-05-14T02:46:23.664Z,7.95
2023-05-14T02:48:50.729Z,7.93
2023-05-14T02:51:19.387Z,7.95
2023-05-14T02:53:46.477Z,7.94
2023-05-14T02:56:13.485Z,7.90
2023-05-14T02:58:40.524Z,7.81
2023-05-14T03:01:07.829Z,7.89
2023-05-14T03:03:36.022Z,7.86
2023-05-14T03:06:03.678Z,7.73
2023-05-14T03:08:30.806Z,7.69
2023-05-14T03:10:57.949Z,7.77
2023-05-14T03:13:25.678Z,7.80
2023-05-14T03:15:55.008Z,7.81
2023-05-14T03:18:22.709Z,7.82
2023-05-14T03:20:49.793Z,7.78
2023-05-14T03:23:16.851Z,7.79
2023-05-14T03:25:43.910Z,7.70
2023-05-14T03:28:10.994Z,7.66
2023-05-14T03:30:38.051Z,7.68
2023-05-14T03:33:05.252Z,7.72
2023-05-14T03:35:32.354Z,7.76
2023-05-14T03:37:59.834Z,7.77
2023-05-14T03:40:27.093Z,7.75
2023-05-14T03:42:54.322Z,7.76
2023-05-14T03:45:21.466Z,7.72
2023-05-14T03:47:48.642Z,7.74
2023-05-14T03:50:15.747Z,7.76
2023-05-14T03:52:43.606Z,7.78
2023-05-14T03:55:10.718Z,7.74
2023-05-14T03:57:37.804Z,7.75
2023-05-14T04:00:05.029Z,7.82
2023-05-14T04:02:43.879Z,7.82
2023-05-14T04:05:11.238Z,7.85
2023-05-14T04:07:38.338Z,7.87
2023-05-14T04:10:05.711Z,7.89
2023-05-14T04:12:35.352Z,7.97
2023-05-14T04:15:03.138Z,8.09
2023-05-14T04:17:30.301Z,8.12
2023-05-14T04:19:57.368Z,8.22
2023-05-14T04:22:24.651Z,8.26
2023-05-14T04:24:52.054Z,8.35
2023-05-14T04:27:22.263Z,8.42
2023-05-14T04:29:50.040Z,8.48
2023-05-14T04:32:17.774Z,8.62
2023-05-14T04:34:45.056Z,8.66
2023-05-14T04:37:12.161Z,8.81
2023-05-14T04:39:39.294Z,8.90
2023-05-14T04:42:06.868Z,9.03
2023-05-14T04:44:34.321Z,9.36
2023-05-14T04:47:02.081Z,9.67
2023-05-14T04:49:29.196Z,10.58
2023-05-14T04:51:56.231Z,11.70
2023-05-14T04:54:23.295Z,12.51
2023-05-14T04:56:50.836Z,12.73
2023-05-14T04:59:17.967Z,13.16
2023-05-14T05:01:45.929Z,12.59
2023-05-14T05:04:13.349Z,12.38
2023-05-14T05:06:40.425Z,11.93
2023-05-14T05:09:08.803Z,11.20
2023-05-14T05:11:35.938Z,10.61
2023-05-14T05:14:03.003Z,10.48
2023-05-14T05:16:30.223Z,10.58
2023-05-14T05:18:57.338Z,10.63
2023-05-14T05:21:24.360Z,10.66
2023-05-14T05:23:51.400Z,10.67
2023-05-14T05:26:18.449Z,10.59
2023-05-14T05:28:45.530Z,10.72
2023-05-14T05:31:12.773Z,10.84
2023-05-14T05:33:39.910Z,10.83
2023-05-14T05:36:07.101Z,11.00
2023-05-14T05:38:34.157Z,10.78
2023-05-14T05:41:01.180Z,11.11
2023-05-14T05:43:28.637Z,11.59
2023-05-14T05:45:55.676Z,11.56
2023-05-14T05:48:22.702Z,11.28
2023-05-14T05:50:50.210Z,11.56
2023-05-14T05:53:17.589Z,11.50
2023-05-14T05:55:44.687Z,11.13
2023-05-14T05:58:12.389Z,10.72
2023-05-14T06:00:39.387Z,10.73
2023-05-14T06:03:06.409Z,10.96
2023-05-14T06:05:33.557Z,10.71
2023-05-14T06:08:00.813Z,10.66
2023-05-14T06:10:27.868Z,10.68
2023-05-14T06:12:54.909Z,10.66
2023-05-14T06:15:22.535Z,10.47
2023-05-14T06:17:49.603Z,10.34
2023-05-14T06:20:17.092Z,10.74
2023-05-14T06:22:44.333Z,10.41
2023-05-14T06:25:11.699Z,10.48
2023-05-14T06:27:38.823Z,10.44
2023-05-14T06:30:07.008Z,10.49
2023-05-14T06:32:34.287Z,10.53
2023-05-14T06:35:01.421Z,10.55
2023-05-14T06:37:28.527Z,10.50
2023-05-14T06:39:57.664Z,10.54
2023-05-14T06:42:24.947Z,10.67
2023-05-14T06:44:52.038Z,10.77
2023-05-14T06:47:19.117Z,10.97
2023-05-14T06:49:46.301Z,10.97
2023-05-14T06:52:13.346Z,11.08
2023-05-14T06:54:40.491Z,11.24
2023-05-14T06:57:07.498Z,11.17
2023-05-14T06:59:34.511Z,11.06
2023-05-14T07:02:02.232Z,11.43
2023-05-14T07:04:29.372Z,11.53
2023-05-14T07:06:56.425Z,11.53
2023-05-14T07:09:23.465Z,11.56
2023-05-14T07:11:50.490Z,11.49
2023-05-14T07:14:17.598Z,11.48
2023-05-14T07:16:45.791Z,11.25
2023-05-14T07:19:12.988Z,11.43
2023-05-14T07:21:40.088Z,11.60
2023-05-14T07:24:09.124Z,11.69
2023-05-14T07:26:36.183Z,11.54
2023-05-14T07:29:03.283Z,11.74
2023-05-14T07:31:30.400Z,11.77
2023-05-14T07:33:57.736Z,11.75
2023-05-14T07:36:25.118Z,11.71
2023-05-14T07:38:52.198Z,11.89
2023-05-14T07:41:19.200Z,11.86
2023-05-14T07:43:46.316Z,11.94
2023-05-14T07:46:13.403Z,12.15
2023-05-14T07:48:40.460Z,12.02
2023-05-14T07:51:07.561Z,12.15
2023-05-14T07:53:34.608Z,12.33
2023-05-14T07:56:01.740Z,12.62
2023-05-14T07:58:28.893Z,12.84
2023-05-14T08:00:56.650Z,12.88
2023-05-14T08:03:23.897Z,13.06
2023-05-14T08:05:52.520Z,13.34
2023-05-14T08:08:19.716Z,13.44
2023-05-14T08:10:46.787Z,13.46
2023-05-14T08:13:13.815Z,13.41
2023-05-14T08:15:40.839Z,12.87
2023-05-14T08:18:07.913Z,12.84
2023-05-14T08:20:35.002Z,13.34
2023-05-14T08:23:02.054Z,13.45
2023-05-14T08:25:29.109Z,13.12
2023-05-14T08:27:56.252Z,12.97
2023-05-14T08:30:23.609Z,13.19
2023-05-14T08:32:50.944Z,13.12
2023-05-14T08:35:18.150Z,13.34
2023-05-14T08:37:45.666Z,13.47
2023-05-14T08:40:12.907Z,13.59
2023-05-14T08:42:44.829Z,13.71
2023-05-14T08:45:16.879Z,13.29
2023-05-14T08:47:47.204Z,13.14
2023-05-14T08:50:14.502Z,13.22
2023-05-14T08:52:41.524Z,13.30
2023-05-14T08:55:09.634Z,13.48
2023-05-14T08:57:36.726Z,13.68
2023-05-14T09:00:14.230Z,13.94
2023-05-14T09:02:42.226Z,14.57
2023-05-14T09:05:09.817Z,14.38
2023-05-14T09:07:36.898Z,14.10
2023-05-14T09:10:04.559Z,14.07
2023-05-14T09:12:31.713Z,14.57
2023-05-14T09:14:58.697Z,15.13
2023-05-14T09:17:26.796Z,15.43
2023-05-14T09:19:54.121Z,16.04
2023-05-14T09:22:21.262Z,15.97
2023-05-14T09:25:02.164Z,16.01
2023-05-14T09:27:32.154Z,15.86
2023-05-14T09:30:12.585Z,15.81
2023-05-14T09:32:40.506Z,15.87
2023-05-14T09:35:17.086Z,16.00
2023-05-14T09:37:46.253Z,16.15
2023-05-14T09:40:13.622Z,16.01
2023-05-14T09:42:41.317Z,16.13
2023-05-14T09:45:09.528Z,15.58
2023-05-14T09:47:37.338Z,15.70
2023-05-14T09:50:05.404Z,15.60
2023-05-14T09:52:32.932Z,15.80
2023-05-14T09:55:00.317Z,15.89
2023-05-14T09:57:27.803Z,16.33
2023-05-14T09:59:54.853Z,16.01
2023-05-14T10:02:22.275Z,15.69
2023-05-14T10:04:53.768Z,15.23
2023-05-14T10:07:23.136Z,15.44
2023-05-14T10:09:54.582Z,15.49
2023-05-14T10:12:22.636Z,15.80
2023-05-14T10:14:53.240Z,15.86
2023-05-14T10:17:21.707Z,15.85
2023-05-14T10:19:53.126Z,15.97
2023-05-14T10:22:23.552Z,15.75
2023-05-14T10:24:53.983Z,15.95
2023-05-14T10:27:21.853Z,15.63
2023-05-14T10:29:55.547Z,15.60
2023-05-14T10:32:25.153Z,16.09
2023-05-14T10:34:53.202Z,16.24
2023-05-14T10:37:24.810Z,15.81
2023-05-14T10:40:07.112Z,15.65
2023-05-14T10:42:35.869Z,15.45
2023-05-14T10:45:07.389Z,15.56
2023-05-14T10:47:44.977Z,15.82
2023-05-14T10:50:13.029Z,15.91
2023-05-14T10:52:43.623Z,16.18
2023-05-14T10:55:13.430Z,16.12
2023-05-14T10:57:42.492Z,15.90
2023-05-14T11:00:10.922Z,16.06
2023-05-14T11:02:39.227Z,16.11
2023-05-14T11:05:08.561Z,15.93
2023-05-14T11:07:36.723Z,16.03
2023-05-14T11:10:08.130Z,16.32
2023-05-14T11:12:36.312Z,16.29
2023-05-14T11:15:06.224Z,16.21
2023-05-14T11:17:35.053Z,15.86
2023-05-14T11:20:02.185Z,16.20
2023-05-14T11:22:29.491Z,16.30
2023-05-14T11:24:56.638Z,16.51
2023-05-14T11:27:24.064Z,16.21
2023-05-14T11:29:51.151Z,16.46
2023-05-14T11:32:18.836Z,16.59
2023-05-14T11:34:46.136Z,17.07
2023-05-14T11:37:16.389Z,17.25
2023-05-14T11:39:50.734Z,17.30
2023-05-14T11:42:19.575Z,17.56
2023-05-14T11:44:47.573Z,17.73
2023-05-14T11:47:15.619Z,17.37
2023-05-14T11:49:42.771Z,17.34
2023-05-14T11:52:11.618Z,17.41
2023-05-14T11:54:38.720Z,17.19
2023-05-14T11:57:10.498Z,17.09
2023-05-14T11:59:37.878Z,17.19
2023-05-14T12:02:05.501Z,17.17
2023-05-14T12:04:32.670Z,17.08
2023-05-14T12:07:00.343Z,17.05
2023-05-14T12:09:27.536Z,16.82
2023-05-14T12:11:54.564Z,17.16
2023-05-14T12:14:22.807Z,17.14
2023-05-14T12:16:50.536Z,17.08
2023-05-14T12:19:19.158Z,17.24
2023-05-14T12:21:47.686Z,17.11
2023-05-14T12:24:16.638Z,17.16
2023-05-14T12:26:47.417Z,17.15
2023-05-14T12:29:19.782Z,17.20
2023-05-14T12:31:47.632Z,16.98
2023-05-14T12:34:15.380Z,17.03
2023-05-14T12:36:42.738Z,17.09
2023-05-14T12:39:10.693Z,17.31
2023-05-14T12:41:37.884Z,17.44
2023-05-14T12:44:05.248Z,17.01
2023-05-14T12:46:33.156Z,16.82
2023-05-14T12:49:00.215Z,16.92
2023-05-14T12:51:27.256Z,17.01
2023-05-14T12:53:54.345Z,16.95
2023-05-14T12:56:21.983Z,16.68
2023-05-14T12:58:49.062Z,16.82
2023-05-14T13:01:16.195Z,16.97
2023-05-14T13:03:43.330Z,17.26
2023-05-14T13:06:10.465Z,17.33
2023-05-14T13:08:38.933Z,17.60
2023-05-14T13:11:06.753Z,17.65
2023-05-14T13:13:33.822Z,17.65
2023-05-14T13:16:00.931Z,17.62
2023-05-14T13:18:28.009Z,17.42
2023-05-14T13:20:55.204Z,17.44
2023-05-14T13:23:26.075Z,17.45
2023-05-14T13:25:53.213Z,17.25
2023-05-14T13:28:20.329Z,17.29
2023-05-14T13:31:03.448Z,17.20
2023-05-14T13:33:30.723Z,17.34
2023-05-14T13:35:57.859Z,17.47
2023-05-14T13:38:24.898Z,17.68
2023-05-14T13:40:52.024Z,17.48
2023-05-14T13:43:19.160Z,17.48
2023-05-14T13:45:48.413Z,17.57
2023-05-14T13:48:15.590Z,17.71
2023-05-14T13:50:42.651Z,17.73
2023-05-14T13:53:09.729Z,17.77
2023-05-14T13:55:36.813Z,17.78
2023-05-14T13:58:04.313Z,17.59
2023-05-14T14:00:31.299Z,17.51
2023-05-14T14:02:58.338Z,17.41
2023-05-14T14:05:28.365Z,17.28
2023-05-14T14:08:01.163Z,17.07
2023-05-14T14:10:36.471Z,17.25
2023-05-14T14:13:03.526Z,17.32
2023-05-14T14:15:30.552Z,17.44
2023-05-14T14:17:57.651Z,17.41
2023-05-14T14:20:24.671Z,17.35
2023-05-14T14:22:51.705Z,16.90
2023-05-14T14:25:18.725Z,16.90
2023-05-14T14:27:47.402Z,16.75
2023-05-14T14:30:17.479Z,16.94
2023-05-14T14:32:48.404Z,16.93
2023-05-14T14:35:16.463Z,17.08
2023-05-14T14:37:45.581Z,16.88
2023-05-14T14:40:12.693Z,16.74
2023-05-14T14:42:39.773Z,16.44
2023-05-14T14:45:07.368Z,16.39
2023-05-14T14:47:34.657Z,16.32
2023-05-14T14:50:01.876Z,16.22
2023-05-14T14:52:29.232Z,16.45
2023-05-14T14:54:56.957Z,16.56
2023-05-14T14:57:24.043Z,16.63
2023-05-14T14:59:51.054Z,16.59
2023-05-14T15:02:18.142Z,16.73
2023-05-14T15:04:45.258Z,16.63
2023-05-14T15:07:12.278Z,16.72
2023-05-14T15:09:39.420Z,16.83
2023-05-14T15:12:06.904Z,16.66
2023-05-14T15:14:33.986Z,16.04
2023-05-14T15:17:02.113Z,15.78
2023-05-14T15:19:29.649Z,15.41
2023-05-14T15:21:56.705Z,15.30
2023-05-14T15:24:25.060Z,15.22
2023-05-14T15:26:53.939Z,15.01
2023-05-14T15:29:41.463Z,14.76
2023-05-14T15:32:08.698Z,14.80
2023-05-14T15:34:35.794Z,14.82
2023-05-14T15:37:02.837Z,14.83
2023-05-14T15:39:31.415Z,14.75
2023-05-14T15:41:58.572Z,14.70
2023-05-14T15:44:26.355Z,14.68
2023-05-14T15:46:53.459Z,14.76
2023-05-14T15:49:20.682Z,14.69
2023-05-14T15:51:47.734Z,14.59
2023-05-14T15:54:14.851Z,14.33
2023-05-14T15:56:41.897Z,14.04
2023-05-14T15:59:08.973Z,13.95
2023-05-14T16:01:36.123Z,13.92
2023-05-14T16:04:05.018Z,14.07
2023-05-14T16:06:33.676Z,13.73
2023-05-14T16:09:02.715Z,13.85
2023-05-14T16:11:30.047Z,13.87
2023-05-14T16:13:58.395Z,13.68
2023-05-14T16:16:25.532Z,13.55
2023-05-14T16:18:52.615Z,13.39
2023-05-14T16:21:19.703Z,13.19
2023-05-14T16:23:46.739Z,13.25
2023-05-14T16:26:13.822Z,13.19
2023-05-14T16:28:42.687Z,13.42
2023-05-14T16:31:12.549Z,13.36
2023-05-14T16:33:42.338Z,13.56
2023-05-14T16:36:09.372Z,13.41
2023-05-14T16:38:41.451Z,13.48
2023-05-14T16:41:15.621Z,13.12
2023-05-14T16:43:44.810Z,13.28
2023-05-14T16:46:12.433Z,13.26
2023-05-14T16:48:39.890Z,12.92
2023-05-14T16:51:06.946Z,13.03
2023-05-14T16:53:34.034Z,13.07
2023-05-14T16:56:01.191Z,13.31
2023-05-14T16:58:28.457Z,13.29
2023-05-14T17:00:55.521Z,13.27
2023-05-14T17:03:22.639Z,13.25
2023-05-14T17:05:49.730Z,13.05
2023-05-14T17:08:16.950Z,13.25
2023-05-14T17:10:43.956Z,13.15
2023-05-14T17:13:11.017Z,13.09
2023-05-14T17:15:40.134Z,13.13
2023-05-14T17:18:07.373Z,13.23
2023-05-14T17:20:34.617Z,12.88
2023-05-14T17:23:01.676Z,12.99
2023-05-14T17:25:28.733Z,13.03
2023-05-14T17:27:55.797Z,13.04
2023-05-14T17:30:22.940Z,13.07
2023-05-14T17:32:51.209Z,12.99
2023-05-14T17:35:18.495Z,12.84
2023-05-14T17:37:45.580Z,12.86
2023-05-14T17:40:15.636Z,12.91
2023-05-14T17:42:45.308Z,12.65
2023-05-14T17:45:13.427Z,12.62
2023-05-14T17:47:40.633Z,12.69
2023-05-14T17:50:07.895Z,12.62
2023-05-14T17:52:35.106Z,12.69
2023-05-14T17:55:02.216Z,12.70
2023-05-14T17:57:29.374Z,12.56
2023-05-14T17:59:57.457Z,12.62
2023-05-14T18:02:24.543Z,12.66
2023-05-14T18:04:51.565Z,12.60
2023-05-14T18:07:19.200Z,12.60
2023-05-14T18:09:46.554Z,12.81
2023-05-14T18:12:13.574Z,12.63
2023-05-14T18:14:40.652Z,12.71
2023-05-14T18:17:07.902Z,12.73
2023-05-14T18:19:35.071Z,12.48
2023-05-14T18:22:02.109Z,12.53
2023-05-14T18:24:29.131Z,12.40
2023-05-14T18:26:56.468Z,12.43
2023-05-14T18:29:23.540Z,12.46
2023-05-14T18:31:50.712Z,12.60
2023-05-14T18:34:17.786Z,12.62
2023-05-14T18:36:44.812Z,12.67
2023-05-14T18:39:11.815Z,12.62
2023-05-14T18:41:38.852Z,12.57
2023-05-14T18:44:05.970Z,12.60
2023-05-14T18:46:33.124Z,12.58
2023-05-14T18:49:00.211Z,12.60
2023-05-14T18:51:27.508Z,12.60
2023-05-14T18:53:55.418Z,12.53
2023-05-14T18:56:22.470Z,12.46
2023-05-14T18:58:49.544Z,12.44
2023-05-14T19:01:16.669Z,12.36
2023-05-14T19:03:43.820Z,12.23
2023-05-14T19:06:10.941Z,12.18
2023-05-14T19:08:38.372Z,11.86
2023-05-14T19:11:05.606Z,11.92
2023-05-14T19:13:32.728Z,12.07
2023-05-14T19:16:00.089Z,11.92
2023-05-14T19:18:27.339Z,12.01
2023-05-14T19:20:56.592Z,11.93
2023-05-14T19:23:23.665Z,11.96
2023-05-14T19:25:50.740Z,11.88
2023-05-14T19:28:19.808Z,11.73
2023-05-14T19:30:47.717Z,11.30
2023-05-14T19:33:14.776Z,11.49
2023-05-14T19:35:41.925Z,11.63
2023-05-14T19:38:12.119Z,11.63
2023-05-14T19:40:39.449Z,11.26
2023-05-14T19:43:08.134Z,11.17
2023-05-14T19:45:39.429Z,11.15
2023-05-14T19:48:06.796Z,11.18
2023-05-14T19:50:34.124Z,11.11
2023-05-14T19:53:01.385Z,10.97
2023-05-14T19:55:28.506Z,10.68
2023-05-14T19:57:55.580Z,10.55
2023-05-14T20:00:26.492Z,10.44
2023-05-14T20:02:54.620Z,10.26
2023-05-14T20:05:21.920Z,10.19
2023-05-14T20:07:49.263Z,10.39
2023-05-14T20:10:16.284Z,10.61
2023-05-14T20:12:43.311Z,10.27
2023-05-14T20:15:10.465Z,10.39
2023-05-14T20:17:38.168Z,10.51
2023-05-14T20:20:06.846Z,10.56
2023-05-14T20:22:33.955Z,10.62
2023-05-14T20:25:00.968Z,10.67
2023-05-14T20:27:27.978Z,10.70
2023-05-14T20:29:54.988Z,10.72
2023-05-14T20:32:24.885Z,10.69
2023-05-14T20:34:52.158Z,10.69
2023-05-14T20:37:22.005Z,10.66
2023-05-14T20:39:49.089Z,10.40
2023-05-14T20:42:16.111Z,10.43
2023-05-14T20:44:43.184Z,10.52
2023-05-14T20:47:10.360Z,10.54
2023-05-14T20:49:37.374Z,10.43
2023-05-14T20:52:04.722Z,10.04
2023-05-14T20:54:31.740Z,9.92
2023-05-14T20:56:58.742Z,9.99
2023-05-14T20:59:25.755Z,10.25
2023-05-14T21:01:52.841Z,10.24
2023-05-14T21:04:20.012Z,10.24
2023-05-14T21:06:47.262Z,10.15
2023-05-14T21:09:14.414Z,10.23
2023-05-14T21:11:41.482Z,10.30
2023-05-14T21:14:08.492Z,10.28
2023-05-14T21:16:35.597Z,10.28
2023-05-14T21:19:02.871Z,10.27
2023-05-14T21:21:29.919Z,10.24
2023-05-14T21:23:57.211Z,10.28
2023-05-14T21:26:24.445Z,10.28
2023-05-14T21:28:51.476Z,10.31
2023-05-14T21:31:18.526Z,10.32
2023-05-14T21:33:45.661Z,10.35
2023-05-14T21:36:12.697Z,10.32
2023-05-14T21:38:39.717Z,10.28
2023-05-14T21:41:06.868Z,10.27
2023-05-14T21:43:33.915Z,10.25
2023-05-14T21:46:00.944Z,10.27
2023-05-14T21:48:28.225Z,10.29
2023-05-14T21:50:55.820Z,10.28
2023-05-14T21:53:22.847Z,10.25
2023-05-14T21:55:49.985Z,10.31
2023-05-14T21:58:17.033Z,10.31
2023-05-14T22:00:44.085Z,10.26
2023-05-14T22:03:11.467Z,10.19
2023-05-14T22:05:38.756Z,10.19
2023-05-14T22:08:06.049Z,10.25
2023-05-14T22:10:34.513Z,10.29
2023-05-14T22:13:01.567Z,10.26
2023-05-14T22:15:28.571Z,10.24
2023-05-14T22:17:55.773Z,10.26
2023-05-14T22:20:22.855Z,10.30
2023-05-14T22:22:50.048Z,10.34
2023-05-14T22:25:17.089Z,10.33
2023-05-14T22:27:44.181Z,10.34
2023-05-14T22:30:11.367Z,10.35
2023-05-14T22:32:38.506Z,10.36
2023-05-14T22:35:05.602Z,10.31
2023-05-14T22:37:32.629Z,10.26
2023-05-14T22:39:59.736Z,10.19
2023-05-14T22:42:27.231Z,10.20
2023-05-14T22:44:54.255Z,10.20
2023-05-14T22:47:21.424Z,10.24
2023-05-14T22:49:48.620Z,10.19
2023-05-14T22:52:15.757Z,10.18
2023-05-14T22:54:43.031Z,10.12
2023-05-14T22:57:10.354Z,10.09
2023-05-14T22:59:37.402Z,10.15
2023-05-14T23:02:04.588Z,10.15
2023-05-14T23:04:31.708Z,10.18
2023-05-14T23:06:58.866Z,10.24
2023-05-14T23:09:25.920Z,10.17
2023-05-14T23:11:53.141Z,10.19
2023-05-14T23:14:20.189Z,10.17
2023-05-14T23:16:47.329Z,10.14
2023-05-14T23:19:14.485Z,10.20
2023-05-14T23:21:41.613Z,10.15
2023-05-14T23:24:08.745Z,10.11
2023-05-14T23:26:35.786Z,10.10
2023-05-14T23:29:02.909Z,10.08
2023-05-14T23:31:29.997Z,10.08
2023-05-14T23:33:57.105Z,10.02
2023-05-14T23:36:24.357Z,10.04
2023-05-14T23:38:51.672Z,10.01
2023-05-14T23:41:18.805Z,10.02
2023-05-14T23:43:45.940Z,10.09
2023-05-14T23:46:13.184Z,10.10
2023-05-14T23:48:40.335Z,10.05
2023-05-14T23:51:07.381Z,10.03
2023-05-14T23:53:34.410Z,10.07
2023-05-14T23:56:01.641Z,10.14
2023-05-14T23:58:30.011Z,10.08
